Time;durP1;ratioP1;P1;durP2;ratioP2;P2;SDS_P1;SDS_P2;PMS_P1;PMS_P2;Temp;Humidity;BMP_temperature;BMP_pressure;BME280_temperature;BME280_humidity;BME280_pressure;Samples;Min_cycle;Max_cycle;Signal;HPM_P1;HPM_P2
2021/04/26 00:01:15;;;;;;;12.88;7.92;;;;;;;5.59;64.05;100631.73;1803814;79;21248;-59
2021/04/26 00:04:22;;;;;;;9.95;7.20;;;;;;;5.55;64.17;100627.07;1803159;79;21338;-59
2021/04/26 00:07:28;;;;;;;12.15;7.60;;;;;;;5.53;64.37;100625.02;1804162;79;21363;-59
2021/04/26 00:10:34;;;;;;;12.73;7.72;;;;;;;5.52;64.28;100633.27;1803785;79;21236;-60
2021/04/26 00:13:41;;;;;;;11.18;7.12;;;;;;;5.52;64.47;100631.91;1802279;79;21193;-60
2021/04/26 00:16:49;;;;;;;15.68;8.18;;;;;;;5.51;64.60;100637.86;1772136;81;21236;-58
2021/04/26 00:19:54;;;;;;;12.35;8.03;;;;;;;5.51;64.52;100642.42;1772007;81;21228;-60
2021/04/26 00:23:01;;;;;;;14.87;8.25;;;;;;;5.50;64.48;100646.98;1772005;81;21223;-61
2021/04/26 00:26:07;;;;;;;12.18;8.98;;;;;;;5.51;64.63;100638.35;1771935;81;21350;-60
2021/04/26 00:29:14;;;;;;;14.35;8.55;;;;;;;5.47;64.64;100642.35;1771977;81;21323;-61
2021/04/26 00:32:21;;;;;;;12.88;8.60;;;;;;;5.41;64.76;100632.02;1772152;81;21240;-61
2021/04/26 00:35:27;;;;;;;15.25;8.38;;;;;;;5.36;64.90;100633.79;1772537;81;21204;-59
2021/04/26 00:38:32;;;;;;;14.30;8.40;;;;;;;5.34;65.36;100634.94;1772507;81;21702;-59
2021/04/26 00:41:39;;;;;;;13.40;8.65;;;;;;;5.32;65.71;100640.50;1772444;81;21359;-59
2021/04/26 00:44:46;;;;;;;17.23;7.92;;;;;;;5.30;65.80;100644.33;1772478;81;21228;-58
2021/04/26 00:47:52;;;;;;;14.45;8.93;;;;;;;5.25;65.85;100645.26;1772482;81;21860;-60
2021/04/26 00:51:00;;;;;;;13.68;9.40;;;;;;;5.21;65.80;100646.02;1772043;81;21240;-60
2021/04/26 00:54:06;;;;;;;14.50;8.95;;;;;;;5.19;65.95;100644.42;1772183;81;21433;-61
2021/04/26 00:57:11;;;;;;;14.80;8.83;;;;;;;5.10;66.04;100646.59;1772279;81;21852;-60
2021/04/26 01:00:18;;;;;;;14.30;8.83;;;;;;;4.98;66.34;100651.75;1771631;81;21382;-60
2021/04/26 01:03:25;;;;;;;15.70;9.35;;;;;;;4.91;66.56;100637.86;1772253;81;21335;-60
2021/04/26 01:06:31;;;;;;;16.42;10.40;;;;;;;4.86;66.62;100636.04;1771881;81;21185;-60
2021/04/26 01:09:36;;;;;;;18.02;10.05;;;;;;;4.80;66.80;100646.07;1772207;81;21398;-59
2021/04/26 01:12:53;;;;;;;14.80;9.05;;;;;;;4.80;67.06;100642.48;1772058;81;21406;-60
2021/04/26 01:16:18;;;;;;;11.93;8.65;;;;;;;4.79;67.24;100640.78;1772476;81;21362;-59
2021/04/26 01:19:37;;;;;;;14.60;9.55;;;;;;;4.80;67.36;100642.48;1772613;81;21402;-61
2021/04/26 01:23:31;;;;;;;14.13;9.55;;;;;;;4.76;67.55;100624.78;1771406;80;21354;-60
2021/04/26 01:27:23;;;;;;;14.33;9.48;;;;;;;4.72;67.76;100631.44;1772280;81;21363;-60
2021/04/26 01:30:48;;;;;;;14.40;9.45;;;;;;;4.66;67.88;100638.27;1771494;81;21369;-59
2021/04/26 01:34:03;;;;;;;24.00;10.30;;;;;;;4.55;68.08;100629.69;1769192;80;21375;-60
2021/04/26 01:37:11;;;;;;;16.67;9.85;;;;;;;4.49;68.44;100626.64;1768376;80;21354;-59
2021/04/26 01:40:19;;;;;;;18.55;11.05;;;;;;;4.46;68.75;100626.42;1772624;81;21413;-59
2021/04/26 01:43:30;;;;;;;18.25;10.65;;;;;;;4.48;68.88;100619.02;1770214;81;21421;-59
2021/04/26 01:46:35;;;;;;;22.15;11.43;;;;;;;4.45;68.85;100612.52;1771124;81;21433;-60
2021/04/26 01:49:41;;;;;;;16.02;10.63;;;;;;;4.43;68.95;100611.78;1752201;80;21359;-59
2021/04/26 01:52:46;;;;;;;15.38;10.60;;;;;;;4.46;69.16;100612.00;1772541;81;21907;-61
2021/04/26 01:55:52;;;;;;;17.67;10.08;;;;;;;4.49;69.31;100606.31;1771858;81;21169;-60
2021/04/26 01:59:03;;;;;;;15.35;10.45;;;;;;;4.51;69.41;100601.14;1772467;81;21334;-60
2021/04/26 02:02:11;;;;;;;16.62;10.20;;;;;;;4.48;69.22;100600.05;1756758;80;21966;-59
2021/04/26 02:05:20;;;;;;;17.10;10.85;;;;;;;4.45;69.42;100594.03;1772320;81;21232;-59
2021/04/26 02:08:28;;;;;;;15.30;9.43;;;;;;;4.40;69.44;100590.36;1740658;81;21243;-59
2021/04/26 02:11:33;;;;;;;16.37;10.43;;;;;;;4.34;69.63;100586.80;1772347;81;21362;-59
2021/04/26 02:14:41;;;;;;;14.65;10.70;;;;;;;4.34;69.77;100584.09;1772290;81;21200;-60
2021/04/26 02:17:49;;;;;;;17.15;9.88;;;;;;;4.30;69.86;100580.42;1771858;81;21323;-59
2021/04/26 02:20:55;;;;;;;18.87;11.20;;;;;;;4.30;70.03;100575.00;1772567;81;21374;-59
2021/04/26 02:24:01;;;;;;;16.48;10.32;;;;;;;4.30;70.27;100569.10;1772392;81;21394;-59
2021/04/26 02:27:07;;;;;;;16.62;10.23;;;;;;;4.31;70.36;100567.27;1772544;81;21346;-61
2021/04/26 02:30:13;;;;;;;22.42;11.08;;;;;;;4.31;70.51;100566.74;1772468;81;21350;-59
2021/04/26 02:33:28;;;;;;;17.40;10.03;;;;;;;4.30;70.59;100562.81;1772459;81;21441;-60
2021/04/26 02:36:48;;;;;;;16.67;10.88;;;;;;;4.31;70.68;100559.97;1772549;81;21197;-60
2021/04/26 02:39:54;;;;;;;17.32;11.25;;;;;;;4.34;70.73;100561.58;1771652;81;21370;-59
2021/04/26 02:43:00;;;;;;;17.87;11.12;;;;;;;4.34;70.71;100560.22;1772543;81;21366;-61
2021/04/26 02:46:08;;;;;;;24.47;10.90;;;;;;;4.33;70.65;100562.06;1770022;80;21891;-59
2021/04/26 02:49:14;;;;;;;15.28;9.95;;;;;;;4.31;70.77;100553.19;1772394;81;21195;-59
2021/04/26 02:52:22;;;;;;;13.22;9.33;;;;;;;4.32;70.87;100555.42;1772563;81;21200;-59
2021/04/26 02:55:29;;;;;;;18.12;10.30;;;;;;;4.31;70.83;100557.78;1772384;81;21216;-59
2021/04/26 02:58:36;;;;;;;18.42;10.25;;;;;;;4.29;70.75;100544.36;1771987;81;21856;-59
2021/04/26 03:01:44;;;;;;;40.10;12.13;;;;;;;4.26;70.80;100546.47;1772403;81;21867;-62
2021/04/26 03:04:53;;;;;;;23.55;11.40;;;;;;;4.24;70.96;100547.09;1771864;81;21362;-62
2021/04/26 03:07:59;;;;;;;22.98;11.80;;;;;;;4.23;71.06;100548.09;1772273;81;21336;-61
2021/04/26 03:11:04;;;;;;;18.42;10.08;;;;;;;4.23;71.11;100545.38;1772103;81;21389;-61
2021/04/26 03:14:10;;;;;;;18.82;10.78;;;;;;;4.23;71.18;100553.52;1756172;81;21378;-62
2021/04/26 03:17:16;;;;;;;21.05;11.30;;;;;;;4.22;71.26;100556.70;1772222;81;21355;-63
2021/04/26 03:20:25;;;;;;;26.85;13.18;;;;;;;4.20;71.29;100545.13;1772299;81;21438;-62
2021/04/26 03:23:41;;;;;;;34.55;15.10;;;;;;;4.23;71.70;100546.22;1772512;81;21881;-62
2021/04/26 03:26:47;;;;;;;44.35;16.73;;;;;;;4.30;71.99;100551.97;1755926;80;21867;-62
2021/04/26 03:29:57;;;;;;;39.63;18.48;;;;;;;4.37;72.24;100555.89;1772184;81;21366;-62
2021/04/26 03:33:05;;;;;;;44.03;18.60;;;;;;;4.42;72.29;100561.77;1771975;81;21377;-62
2021/04/26 03:36:12;;;;;;;42.90;17.27;;;;;;;4.46;72.39;100565.44;1772499;81;21370;-60
2021/04/26 03:39:20;;;;;;;51.58;18.37;;;;;;;4.53;72.60;100558.47;1772280;80;21344;-63
2021/04/26 03:42:27;;;;;;;45.40;16.65;;;;;;;4.65;72.85;100561.98;1772274;81;21346;-61
2021/04/26 03:45:32;;;;;;;29.07;14.15;;;;;;;4.78;72.94;100564.47;1771924;80;22062;-61
2021/04/26 03:48:56;;;;;;;36.53;14.03;;;;;;;4.89;72.93;100551.69;1772162;81;21347;-62
2021/04/26 03:52:15;;;;;;;22.73;12.70;;;;;;;5.03;72.98;100557.23;1733884;80;21200;-62
2021/04/26 03:55:31;;;;;;;18.65;11.57;;;;;;;5.16;73.05;100552.44;1769572;81;21224;-62
2021/04/26 03:58:38;;;;;;;19.55;11.48;;;;;;;5.30;73.24;100550.20;1772377;81;21339;-62
2021/04/26 04:01:43;;;;;;;16.73;11.05;;;;;;;5.44;73.25;100551.69;1772517;81;21216;-63
2021/04/26 04:04:49;;;;;;;16.35;11.40;;;;;;;5.55;73.26;100547.50;1772544;81;21339;-62
2021/04/26 04:07:59;;;;;;;25.25;12.60;;;;;;;5.70;73.28;100550.15;1769086;81;21323;-62
2021/04/26 04:11:22;;;;;;;21.90;12.63;;;;;;;5.91;73.31;100550.92;1772526;81;21369;-62
2021/04/26 04:14:32;;;;;;;20.55;12.88;;;;;;;6.14;73.04;100548.27;1753658;81;21356;-64
2021/04/26 04:17:38;;;;;;;20.85;13.13;;;;;;;6.36;72.78;100538.45;1772484;81;21236;-62
2021/04/26 04:20:46;;;;;;;21.82;13.10;;;;;;;6.56;72.61;100527.05;1772386;81;21343;-63
2021/04/26 04:23:52;;;;;;;25.20;15.40;;;;;;;6.78;72.56;100526.20;1772481;81;21417;-63
2021/04/26 04:26:58;;;;;;;22.87;13.53;;;;;;;7.00;72.38;100519.52;1772418;81;21907;-63
2021/04/26 04:30:03;;;;;;;23.15;13.62;;;;;;;7.19;72.22;100512.63;1772391;81;21800;-62
2021/04/26 04:33:27;;;;;;;15.53;11.50;;;;;;;7.32;72.13;100514.00;1772398;81;21213;-62
2021/04/26 04:36:40;;;;;;;14.93;10.80;;;;;;;7.37;71.94;100505.37;1724945;81;21247;-63
2021/04/26 04:40:04;;;;;;;18.20;10.65;;;;;;;7.39;71.86;100503.33;1771813;81;21432;-62
2021/04/26 04:43:11;;;;;;;18.65;11.18;;;;;;;7.43;71.66;100488.41;1772007;81;21216;-62
2021/04/26 04:46:20;;;;;;;18.27;11.50;;;;;;;7.51;71.56;100490.73;1772583;81;21820;-62
2021/04/26 04:49:29;;;;;;;12.60;10.50;;;;;;;7.68;71.38;100493.59;1768776;80;21379;-60
2021/04/26 04:52:34;;;;;;;17.15;12.23;;;;;;;7.89;71.21;100488.70;1772228;80;21346;-61
2021/04/26 04:55:40;;;;;;;17.02;11.03;;;;;;;8.06;70.88;100478.29;1792431;79;21422;-63
2021/04/26 04:58:51;;;;;;;14.70;10.65;;;;;;;8.16;70.30;100468.16;1772531;81;21907;-61
2021/04/26 05:01:59;;;;;;;13.45;9.65;;;;;;;8.19;69.95;100468.70;1772063;81;21883;-63
2021/04/26 05:05:23;;;;;;;25.10;9.88;;;;;;;8.29;69.90;100467.28;1795899;79;21205;-62
2021/04/26 05:08:48;;;;;;;17.87;9.30;;;;;;;8.49;69.67;100470.14;1793398;79;21189;-62
2021/04/26 05:12:11;;;;;;;20.15;9.50;;;;;;;8.75;69.48;100484.64;1747127;81;21257;-63
2021/04/26 05:15:28;;;;;;;14.87;9.13;;;;;;;8.91;68.52;100480.64;1730526;81;21279;-60
2021/04/26 05:18:47;;;;;;;12.98;8.88;;;;;;;8.98;67.53;100476.22;1802792;79;21181;-60
2021/04/26 05:21:53;;;;;;;13.98;8.30;;;;;;;9.04;67.36;100472.83;1766023;80;21221;-59
2021/04/26 05:25:00;;;;;;;20.12;8.13;;;;;;;9.12;66.88;100465.21;1771318;80;21884;-58
2021/04/26 05:28:06;;;;;;;19.07;8.78;;;;;;;9.16;66.69;100457.87;1771741;81;21338;-60
2021/04/26 05:31:15;;;;;;;14.35;8.20;;;;;;;9.22;66.09;100455.84;1772014;80;21201;-59
2021/04/26 05:34:24;;;;;;;16.30;7.92;;;;;;;9.34;65.65;100461.34;1777731;79;21450;-60
2021/04/26 05:37:31;;;;;;;14.83;7.67;;;;;;;9.44;65.30;100462.56;1769624;81;21364;-60
2021/04/26 05:40:36;;;;;;;15.88;7.47;;;;;;;9.54;64.90;100455.08;1760443;80;21217;-61
2021/04/26 05:43:44;;;;;;;12.82;7.92;;;;;;;9.62;64.25;100462.80;1770657;80;22183;-60
2021/04/26 05:46:56;;;;;;;15.03;7.05;;;;;;;9.68;63.91;100461.26;1775788;79;21339;-59
2021/04/26 05:50:03;;;;;;;17.17;8.05;;;;;;;9.78;63.83;100464.20;1772192;80;21421;-61
2021/04/26 05:53:10;;;;;;;15.10;6.67;;;;;;;9.91;63.33;100454.13;1771761;81;21208;-61
2021/04/26 05:56:19;;;;;;;14.28;7.58;;;;;;;9.98;62.73;100451.91;1771206;80;21385;-61
2021/04/26 05:59:33;;;;;;;12.82;6.87;;;;;;;9.98;61.91;100454.64;1771528;81;21213;-60
2021/04/26 06:02:41;;;;;;;15.95;6.37;;;;;;;10.00;61.57;100449.86;1771697;81;21345;-59
2021/04/26 06:05:49;;;;;;;11.00;5.80;;;;;;;10.13;61.49;100448.84;1776765;79;21343;-59
2021/04/26 06:08:56;;;;;;;12.07;6.60;;;;;;;10.30;60.57;100453.30;1803502;79;21173;-60
2021/04/26 06:12:03;;;;;;;9.53;6.47;;;;;;;10.47;60.09;100450.87;1779680;79;21346;-60
2021/04/26 06:15:10;;;;;;;15.05;5.95;;;;;;;10.65;59.75;100441.59;1802531;79;21343;-59
2021/04/26 06:18:20;;;;;;;11.22;5.78;;;;;;;10.81;59.18;100441.05;1801065;79;21197;-59
2021/04/26 06:21:27;;;;;;;10.03;5.85;;;;;;;10.97;58.65;100444.25;1770308;80;21196;-60
2021/04/26 06:24:34;;;;;;;13.90;6.60;;;;;;;11.15;57.96;100440.73;1775309;79;21705;-60
2021/04/26 06:27:40;;;;;;;8.63;5.90;;;;;;;11.32;57.61;100435.53;1800428;79;21339;-58
2021/04/26 06:30:49;;;;;;;7.50;5.50;;;;;;;11.57;57.02;100430.23;1788265;79;21363;-59
2021/04/26 06:33:55;;;;;;;9.50;4.80;;;;;;;11.70;55.50;100423.68;1772798;79;22255;-59
2021/04/26 06:37:03;;;;;;;13.22;5.80;;;;;;;11.86;55.20;100429.05;1802350;79;21335;-60
2021/04/26 06:40:08;;;;;;;21.40;10.90;;;;;;;12.04;55.25;100425.45;1794951;79;21390;-60
2021/04/26 06:43:14;;;;;;;13.05;7.80;;;;;;;12.17;54.66;100432.55;1760483;81;21299;-60
2021/04/26 06:46:26;;;;;;;10.05;6.30;;;;;;;12.27;54.35;100434.53;1784278;79;21271;-60
2021/04/26 06:49:35;;;;;;;12.18;5.75;;;;;;;12.32;53.58;100432.06;1799150;79;21256;-60
2021/04/26 06:52:41;;;;;;;11.55;6.10;;;;;;;12.40;53.38;100421.00;1802212;79;21338;-60
2021/04/26 06:55:48;;;;;;;12.28;5.78;;;;;;;12.60;53.56;100414.45;1802791;79;21318;-59
2021/04/26 06:58:56;;;;;;;11.30;5.10;;;;;;;12.77;53.24;100416.84;1792707;79;21311;-59
2021/04/26 07:02:02;;;;;;;10.88;5.87;;;;;;;12.84;53.05;100404.06;1788551;79;21426;-60
2021/04/26 07:05:07;;;;;;;14.10;5.28;;;;;;;12.72;52.55;100404.70;1785391;79;21566;-62
2021/04/26 07:08:16;;;;;;;9.23;5.35;;;;;;;12.59;53.26;100408.11;1779130;79;22030;-59
2021/04/26 07:11:22;;;;;;;12.98;5.70;;;;;;;12.48;53.77;100412.69;1791474;79;21942;-59
2021/04/26 07:14:31;;;;;;;12.73;7.20;;;;;;;12.43;53.80;100415.13;1779708;79;21506;-59
2021/04/26 07:17:36;;;;;;;13.18;6.15;;;;;;;12.29;54.00;100406.90;1767577;80;21781;-60
2021/04/26 07:20:43;;;;;;;9.50;6.37;;;;;;;12.14;55.09;100404.62;1791265;79;21298;-61
2021/04/26 07:23:49;;;;;;;7.85;5.67;;;;;;;12.09;55.16;100412.05;1734944;82;21765;-61
2021/04/26 07:26:56;;;;;;;10.08;5.67;;;;;;;12.09;54.56;100402.44;1786694;79;21464;-58
2021/04/26 07:30:03;;;;;;;11.53;5.92;;;;;;;12.02;53.35;100398.20;1707881;82;21947;-59
2021/04/26 07:33:08;;;;;;;12.85;6.28;;;;;;;11.94;53.07;100398.27;1775822;79;21856;-58
2021/04/26 07:36:14;;;;;;;9.58;6.53;;;;;;;11.90;53.40;100397.45;1772073;79;21370;-60
2021/04/26 07:39:19;;;;;;;10.48;5.80;;;;;;;11.88;53.06;100394.91;1788714;79;21359;-59
2021/04/26 07:42:26;;;;;;;12.47;7.15;;;;;;;11.79;52.20;100394.64;1768800;80;21724;-60
2021/04/26 07:45:33;;;;;;;7.25;5.12;;;;;;;11.66;52.15;100400.38;1775464;79;21577;-60
2021/04/26 07:48:42;;;;;;;11.68;6.10;;;;;;;11.49;53.42;100409.22;1787350;79;21845;-59
2021/04/26 07:51:49;;;;;;;9.45;5.70;;;;;;;11.31;54.57;100399.55;1778158;79;21476;-60
2021/04/26 07:54:56;;;;;;;6.95;5.00;;;;;;;11.19;55.50;100414.19;1776227;79;21324;-61
2021/04/26 07:58:03;;;;;;;9.33;5.20;;;;;;;11.12;56.02;100421.91;1754267;81;21371;-60
2021/04/26 08:01:09;;;;;;;6.03;4.80;;;;;;;11.02;56.07;100420.75;1745296;81;21194;-60
2021/04/26 08:04:17;;;;;;;7.20;5.08;;;;;;;10.90;56.25;100421.32;1711449;83;21363;-60
2021/04/26 08:07:24;;;;;;;8.55;5.08;;;;;;;10.73;57.17;100417.80;1766218;79;21212;-59
2021/04/26 08:10:32;;;;;;;9.28;5.97;;;;;;;10.62;58.34;100415.95;1794153;79;21224;-60
2021/04/26 08:13:39;;;;;;;10.78;6.47;;;;;;;10.52;60.61;100415.64;1802881;79;21912;-60
2021/04/26 08:16:46;;;;;;;9.35;5.83;;;;;;;10.43;62.13;100394.77;1803526;79;21749;-59
2021/04/26 08:19:53;;;;;;;10.68;6.05;;;;;;;10.40;63.30;100382.80;1802255;79;21733;-59
2021/04/26 08:22:58;;;;;;;15.55;7.08;;;;;;;10.44;63.64;100368.27;1802813;79;21228;-59
2021/04/26 08:26:03;;;;;;;9.05;5.87;;;;;;;10.43;63.72;100370.14;1793985;79;21354;-59
2021/04/26 08:29:08;;;;;;;8.93;5.87;;;;;;;10.48;63.85;100373.75;1775147;79;21920;-60
2021/04/26 08:32:14;;;;;;;9.90;5.72;;;;;;;10.49;63.57;100376.81;1771892;81;21369;-59
2021/04/26 08:35:19;;;;;;;9.83;6.00;;;;;;;10.45;62.83;100374.93;1771182;80;21410;-62
2021/04/26 08:38:23;;;;;;;7.72;5.85;;;;;;;10.44;62.50;100375.97;1771079;81;21377;-62
2021/04/26 08:41:34;;;;;;;10.25;7.37;;;;;;;10.40;62.36;100359.55;1771710;81;21664;-63
2021/04/26 08:44:42;;;;;;;10.95;6.60;;;;;;;10.39;62.75;100362.45;1773364;79;21758;-63
2021/04/26 08:47:49;;;;;;;10.65;6.60;;;;;;;10.44;62.89;100365.53;1789268;79;21875;-62
2021/04/26 08:50:56;;;;;;;7.83;6.20;;;;;;;10.48;63.35;100365.53;1796406;79;21371;-64
2021/04/26 08:54:03;;;;;;;8.53;5.90;;;;;;;10.49;63.04;100357.66;1761004;81;21355;-63
2021/04/26 08:57:10;;;;;;;11.65;6.47;;;;;;;10.52;63.92;100345.84;1694684;84;21752;-64
2021/04/26 09:00:18;;;;;;;11.45;7.47;;;;;;;10.53;64.57;100346.67;1765372;79;21347;-63
2021/04/26 09:03:24;;;;;;;18.07;9.40;;;;;;;10.60;65.20;100350.42;1772140;81;21363;-63
2021/04/26 09:06:30;;;;;;;10.48;7.20;;;;;;;10.65;65.74;100347.16;1772602;81;21326;-64
2021/04/26 09:09:52;;;;;;;12.43;7.28;;;;;;;10.62;66.19;100351.11;1770848;80;21942;-62
2021/04/26 09:13:02;;;;;;;11.28;6.87;;;;;;;10.54;66.61;100350.60;1772275;80;21331;-63
2021/04/26 09:16:22;;;;;;;14.35;7.80;;;;;;;10.37;66.35;100333.91;1772375;80;21732;-63
2021/04/26 09:19:30;;;;;;;13.88;8.08;;;;;;;10.11;65.94;100324.23;1772346;81;21434;-64
2021/04/26 09:23:04;;;;;;;12.55;8.58;;;;;;;9.89;65.83;100320.83;1755324;80;21192;-64
2021/04/26 09:26:09;;;;;;;16.12;8.43;;;;;;;9.65;66.50;100322.20;1771884;80;21378;-63
2021/04/26 09:29:32;;;;;;;15.70;8.60;;;;;;;9.48;66.81;100319.14;1771463;80;21259;-62
2021/04/26 09:32:38;;;;;;;16.73;9.88;;;;;;;9.34;67.52;100315.19;1784960;79;21370;-64
2021/04/26 09:35:43;;;;;;;15.30;10.45;;;;;;;9.24;67.61;100319.98;1783992;79;21328;-62
2021/04/26 09:39:00;;;;;;;12.05;7.92;;;;;;;9.19;67.95;100324.22;1774858;79;21362;-64
2021/04/26 09:42:05;;;;;;;10.32;7.42;;;;;;;9.16;68.44;100314.51;1775830;79;21212;-63
2021/04/26 09:45:36;;;;;;;13.45;8.73;;;;;;;9.15;68.89;100312.78;1775633;79;21197;-62
2021/04/26 09:48:44;;;;;;;12.95;8.68;;;;;;;9.13;69.29;100315.34;1741508;81;21872;-60
2021/04/26 09:51:56;;;;;;;13.93;8.60;;;;;;;9.15;69.61;100325.06;1777615;79;21311;-60
2021/04/26 09:55:02;;;;;;;18.75;9.35;;;;;;;9.19;69.85;100318.77;1753032;81;21405;-59
2021/04/26 09:58:09;;;;;;;12.10;7.35;;;;;;;9.25;70.14;100324.91;1760743;81;21245;-59
2021/04/26 10:01:15;;;;;;;11.20;7.45;;;;;;;9.31;69.75;100319.63;1764000;81;21224;-61
2021/04/26 10:04:22;;;;;;;12.82;8.68;;;;;;;9.36;69.52;100312.28;1766988;81;21294;-60
2021/04/26 10:07:29;;;;;;;14.07;9.53;;;;;;;9.41;69.44;100322.20;1766670;80;21176;-59
2021/04/26 10:10:35;;;;;;;12.98;7.65;;;;;;;9.42;69.68;100324.76;1764982;81;21236;-59
2021/04/26 10:13:45;;;;;;;11.73;8.50;;;;;;;9.41;69.82;100324.43;1766710;81;21252;-59
2021/04/26 10:16:59;;;;;;;11.43;7.95;;;;;;;9.35;70.33;100327.84;1767128;81;21220;-61
2021/04/26 10:20:07;;;;;;;9.30;7.05;;;;;;;9.29;70.91;100327.16;1767165;81;21232;-61
2021/04/26 10:23:16;;;;;;;10.05;6.25;;;;;;;9.25;71.51;100331.73;1766878;81;21227;-60
2021/04/26 10:26:49;;;;;;;7.97;6.12;;;;;;;9.20;72.00;100330.88;1758365;81;21220;-61
2021/04/26 10:30:13;;;;;;;12.10;8.25;;;;;;;9.11;72.34;100331.90;1767406;81;21287;-60
2021/04/26 10:33:23;;;;;;;10.05;5.95;;;;;;;9.02;72.89;100327.45;1767225;80;21717;-60
2021/04/26 10:37:03;;;;;;;9.40;5.60;;;;;;;9.01;73.24;100333.91;1767346;81;21216;-59
2021/04/26 10:40:27;;;;;;;7.15;5.62;;;;;;;8.98;73.31;100326.92;1766923;81;21235;-60
2021/04/26 10:43:37;;;;;;;8.65;5.58;;;;;;;8.96;73.47;100323.50;1767204;81;21329;-60
2021/04/26 10:46:44;;;;;;;6.28;5.17;;;;;;;9.00;73.47;100315.34;1767585;81;21217;-61
2021/04/26 10:49:53;;;;;;;7.83;5.28;;;;;;;9.04;73.37;100314.47;1750006;81;21938;-61
2021/04/26 10:53:01;;;;;;;7.87;5.47;;;;;;;9.05;73.21;100318.92;1740053;82;21260;-60
2021/04/26 10:56:07;;;;;;;5.80;4.80;;;;;;;9.06;73.12;100311.93;1788931;80;21324;-60
2021/04/26 10:59:30;;;;;;;7.25;5.83;;;;;;;9.12;73.29;100308.19;1706331;83;21320;-60
2021/04/26 11:02:40;;;;;;;9.30;6.05;;;;;;;9.12;73.25;100301.36;1706108;81;21770;-61
2021/04/26 11:05:53;;;;;;;9.03;6.25;;;;;;;9.16;73.50;100295.89;1765918;81;21826;-60
2021/04/26 11:09:08;;;;;;;8.85;6.12;;;;;;;9.17;73.76;100302.55;1779466;79;21200;-61
2021/04/26 11:12:09;;;;;;;8.45;5.80;;;;;;;9.19;73.94;100301.87;1781921;79;21209;-60
2021/04/26 11:15:25;;;;;;;8.05;6.45;;;;;;;9.16;74.15;100300.85;1775495;80;21355;-60
2021/04/26 11:18:33;;;;;;;8.30;6.40;;;;;;;9.11;74.47;100293.67;1768351;80;21256;-61
2021/04/26 11:21:54;;;;;;;7.37;5.45;;;;;;;9.12;74.87;100301.36;1767428;79;21340;-62
2021/04/26 11:25:01;;;;;;;9.53;5.83;;;;;;;9.06;75.05;100305.61;1766231;81;21727;-60
2021/04/26 11:28:08;;;;;;;7.30;5.80;;;;;;;8.93;74.99;100310.19;1779789;80;21931;-60
2021/04/26 11:31:15;;;;;;;15.38;11.12;;;;;;;8.79;74.61;100305.37;1768035;79;21884;-59
2021/04/26 11:34:22;;;;;;;10.68;8.30;;;;;;;8.69;74.45;100312.84;1777208;80;21374;-60
2021/04/26 11:37:31;;;;;;;18.40;12.20;;;;;;;8.56;74.28;100311.62;1766534;81;21216;-61
2021/04/26 11:40:39;;;;;;;11.12;7.92;;;;;;;8.46;74.46;100313.11;1766918;81;21193;-59
2021/04/26 11:43:53;;;;;;;10.65;7.85;;;;;;;8.35;74.10;100313.91;1766686;81;21212;-60
2021/04/26 11:46:59;;;;;;;13.10;10.98;;;;;;;8.23;74.05;100320.67;1766883;81;21262;-61
2021/04/26 11:50:11;;;;;;;10.15;6.75;;;;;;;8.08;74.35;100305.39;1773781;80;21256;-60
2021/04/26 11:53:17;;;;;;;6.60;5.00;;;;;;;8.03;73.99;100300.92;1789884;80;21351;-59
2021/04/26 11:56:24;;;;;;;10.28;8.50;;;;;;;7.98;73.35;100316.03;1766364;80;21399;-62
2021/04/26 11:59:29;;;;;;;10.93;7.80;;;;;;;7.95;73.34;100312.27;1768351;81;21292;-63
2021/04/26 12:02:42;;;;;;;10.82;7.60;;;;;;;7.90;73.85;100311.89;1768216;81;21345;-61
2021/04/26 12:05:51;;;;;;;11.65;8.25;;;;;;;7.84;74.21;100303.87;1768649;81;22159;-59
2021/04/26 12:09:00;;;;;;;17.30;12.82;;;;;;;7.79;74.63;100308.94;1762979;80;21348;-65
2021/04/26 12:12:10;;;;;;;19.20;14.20;;;;;;;7.70;74.68;100320.80;1779632;80;21839;-62
2021/04/26 12:15:24;;;;;;;18.32;14.38;;;;;;;7.53;74.50;100326.62;1765622;81;21348;-62
2021/04/26 12:18:30;;;;;;;19.00;14.50;;;;;;;7.45;74.46;100323.83;1789755;80;21722;-60
2021/04/26 12:21:36;;;;;;;17.35;13.78;;;;;;;7.38;74.05;100330.93;1793043;80;21201;-64
2021/04/26 12:24:42;;;;;;;5.90;5.10;;;;;;;7.30;73.91;100330.86;1792789;79;21460;-61
2021/04/26 12:27:48;;;;;;;8.85;5.60;;;;;;;7.12;73.18;100347.68;1795589;80;21185;-60
2021/04/26 12:30:56;;;;;;;6.92;5.33;;;;;;;6.83;73.05;100371.53;1793009;79;21714;-61
2021/04/26 12:34:02;;;;;;;7.08;4.90;;;;;;;6.52;72.97;100380.12;1792674;80;21200;-60
2021/04/26 12:37:06;;;;;;;5.33;3.77;;;;;;;6.27;73.36;100374.88;1792742;80;21216;-63
2021/04/26 12:40:29;;;;;;;7.05;5.45;;;;;;;6.08;73.64;100375.80;1792710;79;21916;-61
2021/04/26 12:43:49;;;;;;;5.25;4.20;;;;;;;5.99;73.93;100378.55;1793126;80;21201;-62
2021/04/26 12:46:58;;;;;;;5.20;4.03;;;;;;;5.97;74.03;100384.62;1793379;80;21363;-64
2021/04/26 12:50:26;;;;;;;6.05;3.72;;;;;;;5.97;74.12;100392.77;1793338;79;21723;-61
2021/04/26 12:53:50;;;;;;;6.35;3.92;;;;;;;5.90;73.96;100384.34;1792999;80;21220;-62
2021/04/26 12:57:09;;;;;;;3.77;2.90;;;;;;;5.81;74.27;100397.42;1795221;79;21236;-62
2021/04/26 13:00:19;;;;;;;4.00;2.90;;;;;;;5.86;74.06;100404.67;1803919;79;21265;-60
2021/04/26 13:03:47;;;;;;;3.58;2.67;;;;;;;5.99;73.79;100409.80;1802788;79;21409;-60
2021/04/26 13:06:56;;;;;;;6.30;4.03;;;;;;;6.17;73.78;100413.45;1802729;79;21721;-61
2021/04/26 13:10:16;;;;;;;4.22;3.10;;;;;;;6.30;73.43;100421.27;1806304;78;21713;-60
2021/04/26 13:13:22;;;;;;;5.00;3.80;;;;;;;6.24;72.40;100413.23;1803500;79;21379;-60
2021/04/26 13:16:28;;;;;;;5.67;3.70;;;;;;;6.19;71.94;100425.53;1803499;79;21872;-62
2021/04/26 13:19:36;;;;;;;5.15;3.72;;;;;;;6.10;71.92;100424.05;1803629;79;21374;-63
2021/04/26 13:22:41;;;;;;;2.85;2.30;;;;;;;5.99;72.30;100435.60;1804007;79;21374;-62
2021/04/26 13:25:48;;;;;;;3.83;3.08;;;;;;;5.86;71.89;100428.25;1770594;81;21351;-62
2021/04/26 13:28:53;;;;;;;5.22;4.17;;;;;;;5.79;71.93;100431.14;1769947;81;21192;-62
2021/04/26 13:32:01;;;;;;;19.75;9.68;;;;;;;5.92;71.72;100441.25;1782999;79;21721;-62
2021/04/26 13:35:07;;;;;;;15.60;7.65;;;;;;;6.04;71.27;100433.31;1777219;79;21362;-61
2021/04/26 13:38:13;;;;;;;5.28;3.30;;;;;;;6.08;70.72;100438.30;1748175;81;21247;-62
2021/04/26 13:41:20;;;;;;;12.15;7.28;;;;;;;5.97;70.28;100427.60;1768098;79;21243;-60
2021/04/26 13:44:25;;;;;;;8.08;4.90;;;;;;;5.88;70.33;100452.06;1783082;79;21238;-61
2021/04/26 13:47:32;;;;;;;5.35;3.58;;;;;;;5.75;70.45;100431.95;1773040;79;21374;-60
2021/04/26 13:50:38;;;;;;;3.35;2.50;;;;;;;5.79;70.43;100422.99;1745397;81;21422;-61
2021/04/26 13:53:46;;;;;;;2.58;2.02;;;;;;;5.88;70.25;100415.39;1744024;81;21236;-61
2021/04/26 13:56:55;;;;;;;3.58;2.55;;;;;;;6.06;69.94;100414.98;1771869;80;21365;-61
2021/04/26 14:00:02;;;;;;;4.03;2.70;;;;;;;6.26;69.73;100413.95;1722974;82;21288;-62
2021/04/26 14:03:08;;;;;;;3.67;3.08;;;;;;;6.52;69.42;100425.86;1709471;83;21248;-59
2021/04/26 14:06:15;;;;;;;1.67;1.57;;;;;;;6.62;68.73;100426.69;1712496;82;21241;-62
2021/04/26 14:09:23;;;;;;;1.85;1.57;;;;;;;6.59;68.01;100438.36;1736238;82;21256;-62
2021/04/26 14:12:28;;;;;;;3.27;2.37;;;;;;;6.52;67.28;100446.25;1733976;82;21240;-62
2021/04/26 14:15:34;;;;;;;1.67;1.47;;;;;;;6.47;67.32;100445.84;1734301;82;21410;-62
2021/04/26 14:18:43;;;;;;;2.37;1.90;;;;;;;6.49;66.96;100452.48;1743262;82;21192;-62
2021/04/26 14:21:50;;;;;;;7.30;4.80;;;;;;;6.44;66.13;100440.70;1735922;82;21261;-62
2021/04/26 14:24:55;;;;;;;6.78;5.37;;;;;;;6.58;65.98;100450.25;1729868;82;21606;-61
2021/04/26 14:28:05;;;;;;;3.27;2.35;;;;;;;6.66;65.84;100444.41;1735893;82;21370;-60
2021/04/26 14:31:08;;;;;;;3.05;2.30;;;;;;;6.83;65.15;100442.77;1737911;82;21362;-61
2021/04/26 14:34:14;;;;;;;2.42;1.80;;;;;;;6.85;64.50;100455.20;1700786;84;21217;-60
2021/04/26 14:37:19;;;;;;;5.83;3.65;;;;;;;6.89;64.41;100456.63;1700697;84;21762;-60
2021/04/26 14:40:26;;;;;;;4.20;2.87;;;;;;;7.02;64.37;100457.14;1700635;84;21375;-62